sensor_id;sensor_type;location;lat;lon;timestamp;P1;durP1;ratioP1;P2;durP2;ratioP2
19828;SDS011;10075;50.924;4.396;2022-11-23T00:01:27;15.20;;;3.53;;
19828;SDS011;10075;50.924;4.396;2022-11-23T00:03:55;10.67;;;3.23;;
19828;SDS011;10075;50.924;4.396;2022-11-23T00:06:25;13.17;;;2.53;;
19828;SDS011;10075;50.924;4.396;2022-11-23T00:08:52;10.70;;;2.77;;
19828;SDS011;10075;50.924;4.396;2022-11-23T00:11:20;16.60;;;3.33;;
19828;SDS011;10075;50.924;4.396;2022-11-23T00:13:48;15.17;;;3.10;;
19828;SDS011;10075;50.924;4.396;2022-11-23T00:16:18;13.67;;;3.17;;
19828;SDS011;10075;50.924;4.396;2022-11-23T00:18:46;15.37;;;3.03;;
19828;SDS011;10075;50.924;4.396;2022-11-23T00:21:16;19.13;;;2.97;;
19828;SDS011;10075;50.924;4.396;2022-11-23T00:23:44;13.70;;;3.20;;
19828;SDS011;10075;50.924;4.396;2022-11-23T00:26:12;12.33;;;2.67;;
19828;SDS011;10075;50.924;4.396;2022-11-23T00:28:40;14.43;;;3.27;;
19828;SDS011;10075;50.924;4.396;2022-11-23T00:31:08;16.00;;;3.30;;
19828;SDS011;10075;50.924;4.396;2022-11-23T00:33:37;15.37;;;2.83;;
19828;SDS011;10075;50.924;4.396;2022-11-23T00:36:05;10.83;;;3.40;;
19828;SDS011;10075;50.924;4.396;2022-11-23T00:38:34;9.90;;;2.40;;
19828;SDS011;10075;50.924;4.396;2022-11-23T00:41:01;11.93;;;2.33;;
19828;SDS011;10075;50.924;4.396;2022-11-23T00:43:30;8.40;;;2.30;;
19828;SDS011;10075;50.924;4.396;2022-11-23T00:46:01;12.80;;;3.23;;
19828;SDS011;10075;50.924;4.396;2022-11-23T00:48:32;14.00;;;3.27;;
19828;SDS011;10075;50.924;4.396;2022-11-23T00:51:01;11.40;;;3.00;;
19828;SDS011;10075;50.924;4.396;2022-11-23T00:53:29;13.63;;;2.40;;
19828;SDS011;10075;50.924;4.396;2022-11-23T00:55:56;13.27;;;2.60;;
19828;SDS011;10075;50.924;4.396;2022-11-23T00:58:24;14.33;;;2.50;;
19828;SDS011;10075;50.924;4.396;2022-11-23T01:00:58;9.93;;;2.40;;
19828;SDS011;10075;50.924;4.396;2022-11-23T01:03:27;14.33;;;2.60;;
19828;SDS011;10075;50.924;4.396;2022-11-23T01:05:55;15.60;;;3.10;;
19828;SDS011;10075;50.924;4.396;2022-11-23T01:08:28;16.17;;;3.23;;
19828;SDS011;10075;50.924;4.396;2022-11-23T01:10:57;17.17;;;2.63;;
19828;SDS011;10075;50.924;4.396;2022-11-23T01:13:26;14.73;;;2.80;;
19828;SDS011;10075;50.924;4.396;2022-11-23T01:15:53;14.30;;;3.10;;
19828;SDS011;10075;50.924;4.396;2022-11-23T01:18:20;18.57;;;3.07;;
19828;SDS011;10075;50.924;4.396;2022-11-23T01:20:47;14.80;;;3.10;;
19828;SDS011;10075;50.924;4.396;2022-11-23T01:23:16;16.17;;;2.50;;
19828;SDS011;10075;50.924;4.396;2022-11-23T01:25:43;13.67;;;3.07;;
19828;SDS011;10075;50.924;4.396;2022-11-23T01:28:10;14.93;;;3.23;;
19828;SDS011;10075;50.924;4.396;2022-11-23T01:30:37;16.80;;;2.70;;
19828;SDS011;10075;50.924;4.396;2022-11-23T01:33:04;11.27;;;2.57;;
19828;SDS011;10075;50.924;4.396;2022-11-23T01:35:31;14.90;;;2.87;;
19828;SDS011;10075;50.924;4.396;2022-11-23T01:37:58;13.27;;;2.70;;
19828;SDS011;10075;50.924;4.396;2022-11-23T01:40:26;13.00;;;2.20;;
19828;SDS011;10075;50.924;4.396;2022-11-23T01:42:54;16.13;;;2.50;;
19828;SDS011;10075;50.924;4.396;2022-11-23T01:45:33;15.10;;;2.87;;
19828;SDS011;10075;50.924;4.396;2022-11-23T01:48:07;10.93;;;2.40;;
19828;SDS011;10075;50.924;4.396;2022-11-23T01:50:38;13.50;;;2.43;;
19828;SDS011;10075;50.924;4.396;2022-11-23T01:53:06;13.67;;;2.90;;
19828;SDS011;10075;50.924;4.396;2022-11-23T01:55:34;9.80;;;2.60;;
19828;SDS011;10075;50.924;4.396;2022-11-23T01:58:02;9.43;;;2.20;;
19828;SDS011;10075;50.924;4.396;2022-11-23T02:00:30;13.73;;;2.77;;
19828;SDS011;10075;50.924;4.396;2022-11-23T02:02:58;19.17;;;3.53;;
19828;SDS011;10075;50.924;4.396;2022-11-23T02:05:27;13.50;;;2.43;;
19828;SDS011;10075;50.924;4.396;2022-11-23T02:07:58;12.27;;;2.67;;
19828;SDS011;10075;50.924;4.396;2022-11-23T02:10:27;18.83;;;2.77;;
19828;SDS011;10075;50.924;4.396;2022-11-23T02:13:00;9.77;;;2.37;;
19828;SDS011;10075;50.924;4.396;2022-11-23T02:15:28;18.97;;;2.67;;
19828;SDS011;10075;50.924;4.396;2022-11-23T02:17:57;13.07;;;3.40;;
19828;SDS011;10075;50.924;4.396;2022-11-23T02:20:26;14.57;;;2.80;;
19828;SDS011;10075;50.924;4.396;2022-11-23T02:22:58;12.67;;;2.60;;
19828;SDS011;10075;50.924;4.396;2022-11-23T02:25:40;19.67;;;3.13;;
19828;SDS011;10075;50.924;4.396;2022-11-23T02:28:25;16.73;;;3.10;;
19828;SDS011;10075;50.924;4.396;2022-11-23T02:30:56;13.33;;;3.23;;
19828;SDS011;10075;50.924;4.396;2022-11-23T02:33:23;15.77;;;4.07;;
19828;SDS011;10075;50.924;4.396;2022-11-23T02:35:52;15.80;;;3.03;;
19828;SDS011;10075;50.924;4.396;2022-11-23T02:38:20;13.13;;;2.90;;
19828;SDS011;10075;50.924;4.396;2022-11-23T02:40:49;15.80;;;2.73;;
19828;SDS011;10075;50.924;4.396;2022-11-23T02:43:16;15.07;;;3.23;;
19828;SDS011;10075;50.924;4.396;2022-11-23T02:45:46;11.47;;;2.93;;
19828;SDS011;10075;50.924;4.396;2022-11-23T02:48:16;16.97;;;3.40;;
19828;SDS011;10075;50.924;4.396;2022-11-23T02:50:44;14.33;;;3.10;;
19828;SDS011;10075;50.924;4.396;2022-11-23T02:53:11;13.27;;;2.90;;
19828;SDS011;10075;50.924;4.396;2022-11-23T02:55:38;18.70;;;3.00;;
19828;SDS011;10075;50.924;4.396;2022-11-23T02:58:05;17.03;;;3.03;;
19828;SDS011;10075;50.924;4.396;2022-11-23T03:00:33;13.50;;;2.97;;
19828;SDS011;10075;50.924;4.396;2022-11-23T03:03:02;14.07;;;2.77;;
19828;SDS011;10075;50.924;4.396;2022-11-23T03:05:29;13.90;;;3.13;;
19828;SDS011;10075;50.924;4.396;2022-11-23T03:07:56;14.57;;;2.93;;
19828;SDS011;10075;50.924;4.396;2022-11-23T03:10:23;16.77;;;3.17;;
19828;SDS011;10075;50.924;4.396;2022-11-23T03:12:52;14.40;;;2.37;;
19828;SDS011;10075;50.924;4.396;2022-11-23T03:15:20;18.10;;;3.10;;
19828;SDS011;10075;50.924;4.396;2022-11-23T03:17:47;13.63;;;2.60;;
19828;SDS011;10075;50.924;4.396;2022-11-23T03:20:15;12.90;;;2.90;;
19828;SDS011;10075;50.924;4.396;2022-11-23T03:22:42;18.03;;;2.93;;
19828;SDS011;10075;50.924;4.396;2022-11-23T03:25:09;12.50;;;2.50;;
19828;SDS011;10075;50.924;4.396;2022-11-23T03:27:37;10.53;;;2.53;;
19828;SDS011;10075;50.924;4.396;2022-11-23T03:30:05;12.43;;;3.17;;
19828;SDS011;10075;50.924;4.396;2022-11-23T03:32:33;16.13;;;2.67;;
19828;SDS011;10075;50.924;4.396;2022-11-23T03:35:01;11.67;;;2.50;;
19828;SDS011;10075;50.924;4.396;2022-11-23T03:37:30;11.77;;;2.43;;
19828;SDS011;10075;50.924;4.396;2022-11-23T03:39:57;13.23;;;2.30;;
19828;SDS011;10075;50.924;4.396;2022-11-23T03:42:24;10.80;;;2.67;;
19828;SDS011;10075;50.924;4.396;2022-11-23T03:44:51;12.53;;;3.23;;
19828;SDS011;10075;50.924;4.396;2022-11-23T03:47:18;12.17;;;3.10;;
19828;SDS011;10075;50.924;4.396;2022-11-23T03:49:45;21.67;;;3.57;;
19828;SDS011;10075;50.924;4.396;2022-11-23T03:52:12;16.40;;;3.33;;
19828;SDS011;10075;50.924;4.396;2022-11-23T03:54:40;17.37;;;3.20;;
19828;SDS011;10075;50.924;4.396;2022-11-23T03:57:07;18.97;;;3.57;;
19828;SDS011;10075;50.924;4.396;2022-11-23T03:59:34;20.43;;;4.47;;
19828;SDS011;10075;50.924;4.396;2022-11-23T04:02:01;19.53;;;3.37;;
19828;SDS011;10075;50.924;4.396;2022-11-23T04:04:28;21.53;;;3.20;;
19828;SDS011;10075;50.924;4.396;2022-11-23T04:06:55;18.90;;;3.50;;
19828;SDS011;10075;50.924;4.396;2022-11-23T04:09:22;18.33;;;3.17;;
19828;SDS011;10075;50.924;4.396;2022-11-23T04:11:50;16.43;;;3.30;;
19828;SDS011;10075;50.924;4.396;2022-11-23T04:14:17;19.53;;;3.80;;
19828;SDS011;10075;50.924;4.396;2022-11-23T04:16:45;15.53;;;3.37;;
19828;SDS011;10075;50.924;4.396;2022-11-23T04:19:12;20.10;;;3.53;;
19828;SDS011;10075;50.924;4.396;2022-11-23T04:21:39;19.83;;;3.77;;
19828;SDS011;10075;50.924;4.396;2022-11-23T04:24:07;19.23;;;4.13;;
19828;SDS011;10075;50.924;4.396;2022-11-23T04:26:34;22.83;;;5.10;;
19828;SDS011;10075;50.924;4.396;2022-11-23T04:29:02;16.87;;;4.27;;
19828;SDS011;10075;50.924;4.396;2022-11-23T04:31:29;16.73;;;3.90;;
19828;SDS011;10075;50.924;4.396;2022-11-23T04:33:57;14.23;;;3.37;;
19828;SDS011;10075;50.924;4.396;2022-11-23T04:36:24;20.47;;;4.07;;
19828;SDS011;10075;50.924;4.396;2022-11-23T04:38:51;14.73;;;3.33;;
19828;SDS011;10075;50.924;4.396;2022-11-23T04:41:18;16.60;;;3.43;;
19828;SDS011;10075;50.924;4.396;2022-11-23T04:43:46;15.73;;;3.03;;
19828;SDS011;10075;50.924;4.396;2022-11-23T04:46:14;15.57;;;3.80;;
19828;SDS011;10075;50.924;4.396;2022-11-23T04:48:41;15.97;;;3.53;;
19828;SDS011;10075;50.924;4.396;2022-11-23T04:51:08;14.07;;;3.37;;
19828;SDS011;10075;50.924;4.396;2022-11-23T04:53:35;13.87;;;3.10;;
19828;SDS011;10075;50.924;4.396;2022-11-23T04:56:02;20.73;;;3.20;;
19828;SDS011;10075;50.924;4.396;2022-11-23T04:58:30;20.77;;;3.50;;
19828;SDS011;10075;50.924;4.396;2022-11-23T05:00:57;15.67;;;3.93;;
19828;SDS011;10075;50.924;4.396;2022-11-23T05:03:25;17.47;;;3.10;;
19828;SDS011;10075;50.924;4.396;2022-11-23T05:05:52;21.27;;;3.23;;
19828;SDS011;10075;50.924;4.396;2022-11-23T05:08:23;22.23;;;4.10;;
19828;SDS011;10075;50.924;4.396;2022-11-23T05:10:50;20.83;;;3.70;;
19828;SDS011;10075;50.924;4.396;2022-11-23T05:13:16;20.73;;;3.40;;
19828;SDS011;10075;50.924;4.396;2022-11-23T05:15:44;13.90;;;3.60;;
19828;SDS011;10075;50.924;4.396;2022-11-23T05:18:11;13.73;;;3.20;;
19828;SDS011;10075;50.924;4.396;2022-11-23T05:20:40;13.57;;;3.73;;
19828;SDS011;10075;50.924;4.396;2022-11-23T05:23:07;15.13;;;3.27;;
19828;SDS011;10075;50.924;4.396;2022-11-23T05:25:35;15.90;;;2.97;;
19828;SDS011;10075;50.924;4.396;2022-11-23T05:28:02;20.63;;;3.87;;
19828;SDS011;10075;50.924;4.396;2022-11-23T05:30:29;19.07;;;3.93;;
19828;SDS011;10075;50.924;4.396;2022-11-23T05:32:58;16.33;;;2.93;;
19828;SDS011;10075;50.924;4.396;2022-11-23T05:35:26;17.27;;;3.33;;
19828;SDS011;10075;50.924;4.396;2022-11-23T05:37:54;20.87;;;3.63;;
19828;SDS011;10075;50.924;4.396;2022-11-23T05:40:21;14.73;;;2.80;;
19828;SDS011;10075;50.924;4.396;2022-11-23T05:42:52;16.10;;;3.20;;
19828;SDS011;10075;50.924;4.396;2022-11-23T05:45:20;16.50;;;3.10;;
19828;SDS011;10075;50.924;4.396;2022-11-23T05:47:50;15.60;;;3.57;;
19828;SDS011;10075;50.924;4.396;2022-11-23T05:50:18;17.40;;;3.43;;
19828;SDS011;10075;50.924;4.396;2022-11-23T05:52:45;14.13;;;3.73;;
19828;SDS011;10075;50.924;4.396;2022-11-23T05:55:14;17.07;;;3.50;;
19828;SDS011;10075;50.924;4.396;2022-11-23T05:57:41;14.37;;;2.97;;
19828;SDS011;10075;50.924;4.396;2022-11-23T06:00:08;17.00;;;3.27;;
19828;SDS011;10075;50.924;4.396;2022-11-23T06:02:36;16.90;;;3.63;;
19828;SDS011;10075;50.924;4.396;2022-11-23T06:05:04;18.47;;;3.80;;
19828;SDS011;10075;50.924;4.396;2022-11-23T06:07:32;23.40;;;3.93;;
19828;SDS011;10075;50.924;4.396;2022-11-23T06:10:00;17.53;;;3.73;;
19828;SDS011;10075;50.924;4.396;2022-11-23T06:12:29;16.50;;;3.80;;
19828;SDS011;10075;50.924;4.396;2022-11-23T06:14:56;19.67;;;4.40;;
19828;SDS011;10075;50.924;4.396;2022-11-23T06:17:23;18.33;;;4.20;;
19828;SDS011;10075;50.924;4.396;2022-11-23T06:19:50;17.60;;;3.83;;
19828;SDS011;10075;50.924;4.396;2022-11-23T06:22:17;14.43;;;3.10;;
19828;SDS011;10075;50.924;4.396;2022-11-23T06:24:44;13.63;;;3.37;;
19828;SDS011;10075;50.924;4.396;2022-11-23T06:27:11;16.93;;;3.83;;
19828;SDS011;10075;50.924;4.396;2022-11-23T06:29:42;19.00;;;5.73;;
19828;SDS011;10075;50.924;4.396;2022-11-23T06:32:11;19.83;;;5.07;;
19828;SDS011;10075;50.924;4.396;2022-11-23T06:34:38;22.47;;;6.97;;
19828;SDS011;10075;50.924;4.396;2022-11-23T06:37:05;13.50;;;3.70;;
19828;SDS011;10075;50.924;4.396;2022-11-23T06:39:32;24.07;;;3.47;;
19828;SDS011;10075;50.924;4.396;2022-11-23T06:41:59;16.53;;;3.20;;
19828;SDS011;10075;50.924;4.396;2022-11-23T06:44:27;19.07;;;3.00;;
19828;SDS011;10075;50.924;4.396;2022-11-23T06:46:55;14.80;;;3.00;;
19828;SDS011;10075;50.924;4.396;2022-11-23T06:49:22;12.57;;;3.10;;
19828;SDS011;10075;50.924;4.396;2022-11-23T06:51:50;19.93;;;3.20;;
19828;SDS011;10075;50.924;4.396;2022-11-23T06:54:17;17.57;;;3.70;;
19828;SDS011;10075;50.924;4.396;2022-11-23T06:56:44;20.17;;;3.20;;
19828;SDS011;10075;50.924;4.396;2022-11-23T06:59:11;14.70;;;3.17;;
19828;SDS011;10075;50.924;4.396;2022-11-23T07:01:40;18.87;;;3.73;;
19828;SDS011;10075;50.924;4.396;2022-11-23T07:04:08;18.50;;;3.47;;
19828;SDS011;10075;50.924;4.396;2022-11-23T07:06:37;15.90;;;3.33;;
19828;SDS011;10075;50.924;4.396;2022-11-23T07:09:05;19.60;;;3.57;;
19828;SDS011;10075;50.924;4.396;2022-11-23T07:11:33;20.53;;;3.40;;
19828;SDS011;10075;50.924;4.396;2022-11-23T07:14:00;19.70;;;3.37;;
19828;SDS011;10075;50.924;4.396;2022-11-23T07:16:27;15.50;;;2.93;;
19828;SDS011;10075;50.924;4.396;2022-11-23T07:18:54;22.60;;;3.70;;
19828;SDS011;10075;50.924;4.396;2022-11-23T07:21:24;17.63;;;3.83;;
19828;SDS011;10075;50.924;4.396;2022-11-23T07:23:51;16.83;;;3.07;;
19828;SDS011;10075;50.924;4.396;2022-11-23T07:26:18;23.27;;;4.10;;
19828;SDS011;10075;50.924;4.396;2022-11-23T07:28:45;17.67;;;3.83;;
19828;SDS011;10075;50.924;4.396;2022-11-23T07:31:12;18.20;;;3.90;;
19828;SDS011;10075;50.924;4.396;2022-11-23T07:33:42;18.97;;;3.87;;
19828;SDS011;10075;50.924;4.396;2022-11-23T07:36:09;24.87;;;4.60;;
19828;SDS011;10075;50.924;4.396;2022-11-23T07:38:37;23.90;;;3.60;;
19828;SDS011;10075;50.924;4.396;2022-11-23T07:41:05;16.67;;;4.20;;
19828;SDS011;10075;50.924;4.396;2022-11-23T07:43:32;13.93;;;3.87;;
19828;SDS011;10075;50.924;4.396;2022-11-23T07:45:59;14.83;;;4.20;;
19828;SDS011;10075;50.924;4.396;2022-11-23T07:48:26;14.23;;;3.03;;
19828;SDS011;10075;50.924;4.396;2022-11-23T07:50:53;16.23;;;4.50;;
19828;SDS011;10075;50.924;4.396;2022-11-23T07:53:20;15.20;;;4.60;;
19828;SDS011;10075;50.924;4.396;2022-11-23T07:55:49;14.47;;;4.10;;
19828;SDS011;10075;50.924;4.396;2022-11-23T07:58:21;19.03;;;3.57;;
19828;SDS011;10075;50.924;4.396;2022-11-23T08:00:48;16.40;;;4.33;;
19828;SDS011;10075;50.924;4.396;2022-11-23T08:03:15;17.30;;;4.03;;
19828;SDS011;10075;50.924;4.396;2022-11-23T08:05:41;20.47;;;4.60;;
19828;SDS011;10075;50.924;4.396;2022-11-23T08:08:08;22.37;;;4.80;;
19828;SDS011;10075;50.924;4.396;2022-11-23T08:10:36;17.60;;;4.00;;
19828;SDS011;10075;50.924;4.396;2022-11-23T08:13:05;16.53;;;4.13;;
19828;SDS011;10075;50.924;4.396;2022-11-23T08:15:32;26.40;;;4.50;;
19828;SDS011;10075;50.924;4.396;2022-11-23T08:17:59;16.63;;;4.20;;
19828;SDS011;10075;50.924;4.396;2022-11-23T08:20:28;18.37;;;4.10;;
19828;SDS011;10075;50.924;4.396;2022-11-23T08:22:57;14.47;;;4.07;;
19828;SDS011;10075;50.924;4.396;2022-11-23T08:25:24;18.97;;;4.37;;
19828;SDS011;10075;50.924;4.396;2022-11-23T08:27:53;16.23;;;5.00;;
19828;SDS011;10075;50.924;4.396;2022-11-23T08:30:22;23.70;;;3.83;;
19828;SDS011;10075;50.924;4.396;2022-11-23T08:32:51;15.67;;;3.83;;
19828;SDS011;10075;50.924;4.396;2022-11-23T08:35:18;12.90;;;3.63;;
19828;SDS011;10075;50.924;4.396;2022-11-23T08:37:45;16.17;;;3.57;;
19828;SDS011;10075;50.924;4.396;2022-11-23T08:40:13;12.37;;;3.30;;
19828;SDS011;10075;50.924;4.396;2022-11-23T08:42:40;15.43;;;3.77;;
19828;SDS011;10075;50.924;4.396;2022-11-23T08:45:08;11.97;;;3.10;;
19828;SDS011;10075;50.924;4.396;2022-11-23T08:47:37;14.03;;;3.67;;
19828;SDS011;10075;50.924;4.396;2022-11-23T08:50:04;13.00;;;3.60;;
19828;SDS011;10075;50.924;4.396;2022-11-23T08:52:32;16.20;;;3.57;;
19828;SDS011;10075;50.924;4.396;2022-11-23T08:54:59;11.70;;;3.57;;
19828;SDS011;10075;50.924;4.396;2022-11-23T08:57:26;11.27;;;3.77;;
19828;SDS011;10075;50.924;4.396;2022-11-23T08:59:53;14.67;;;2.70;;
19828;SDS011;10075;50.924;4.396;2022-11-23T09:02:20;14.53;;;2.90;;
19828;SDS011;10075;50.924;4.396;2022-11-23T09:04:49;11.93;;;2.57;;
19828;SDS011;10075;50.924;4.396;2022-11-23T09:07:16;9.30;;;3.13;;
19828;SDS011;10075;50.924;4.396;2022-11-23T09:09:43;11.50;;;2.97;;
19828;SDS011;10075;50.924;4.396;2022-11-23T09:12:10;10.57;;;2.77;;
19828;SDS011;10075;50.924;4.396;2022-11-23T09:14:37;9.13;;;3.23;;
19828;SDS011;10075;50.924;4.396;2022-11-23T09:17:04;9.60;;;3.13;;
19828;SDS011;10075;50.924;4.396;2022-11-23T09:19:31;8.10;;;2.63;;
19828;SDS011;10075;50.924;4.396;2022-11-23T09:21:59;7.27;;;2.83;;
19828;SDS011;10075;50.924;4.396;2022-11-23T09:24:26;10.20;;;2.90;;
19828;SDS011;10075;50.924;4.396;2022-11-23T09:26:53;10.73;;;3.20;;
19828;SDS011;10075;50.924;4.396;2022-11-23T09:29:21;10.00;;;3.43;;
19828;SDS011;10075;50.924;4.396;2022-11-23T09:31:49;12.07;;;3.67;;
19828;SDS011;10075;50.924;4.396;2022-11-23T09:34:16;9.07;;;3.27;;
19828;SDS011;10075;50.924;4.396;2022-11-23T09:36:43;7.97;;;2.77;;
19828;SDS011;10075;50.924;4.396;2022-11-23T09:39:12;12.20;;;3.60;;
19828;SDS011;10075;50.924;4.396;2022-11-23T09:41:49;11.60;;;3.07;;
19828;SDS011;10075;50.924;4.396;2022-11-23T09:44:37;11.37;;;2.93;;
19828;SDS011;10075;50.924;4.396;2022-11-23T09:47:21;10.80;;;2.80;;
19828;SDS011;10075;50.924;4.396;2022-11-23T09:49:59;10.23;;;3.43;;
19828;SDS011;10075;50.924;4.396;2022-11-23T09:52:36;9.70;;;2.87;;
19828;SDS011;10075;50.924;4.396;2022-11-23T09:55:09;11.33;;;3.33;;
19828;SDS011;10075;50.924;4.396;2022-11-23T09:57:39;12.60;;;3.70;;
19828;SDS011;10075;50.924;4.396;2022-11-23T10:00:14;9.70;;;2.77;;
19828;SDS011;10075;50.924;4.396;2022-11-23T10:02:44;12.60;;;2.87;;
19828;SDS011;10075;50.924;4.396;2022-11-23T10:05:12;16.63;;;3.53;;
19828;SDS011;10075;50.924;4.396;2022-11-23T10:07:46;13.27;;;3.23;;
19828;SDS011;10075;50.924;4.396;2022-11-23T10:10:29;14.03;;;3.03;;
19828;SDS011;10075;50.924;4.396;2022-11-23T10:13:08;11.33;;;2.80;;
19828;SDS011;10075;50.924;4.396;2022-11-23T10:15:50;10.83;;;2.97;;
19828;SDS011;10075;50.924;4.396;2022-11-23T10:18:28;12.50;;;3.10;;
19828;SDS011;10075;50.924;4.396;2022-11-23T10:21:05;7.67;;;2.43;;
19828;SDS011;10075;50.924;4.396;2022-11-23T10:23:45;7.83;;;2.57;;
19828;SDS011;10075;50.924;4.396;2022-11-23T10:26:20;10.13;;;2.50;;
19828;SDS011;10075;50.924;4.396;2022-11-23T10:28:53;10.47;;;2.73;;
19828;SDS011;10075;50.924;4.396;2022-11-23T10:31:22;9.90;;;2.80;;
19828;SDS011;10075;50.924;4.396;2022-11-23T10:33:53;8.87;;;2.40;;
19828;SDS011;10075;50.924;4.396;2022-11-23T10:36:23;7.37;;;2.17;;
19828;SDS011;10075;50.924;4.396;2022-11-23T10:38:51;12.63;;;2.27;;
19828;SDS011;10075;50.924;4.396;2022-11-23T10:41:23;6.83;;;2.10;;
19828;SDS011;10075;50.924;4.396;2022-11-23T10:43:51;5.03;;;2.13;;
19828;SDS011;10075;50.924;4.396;2022-11-23T10:46:26;7.40;;;2.33;;
19828;SDS011;10075;50.924;4.396;2022-11-23T10:49:07;7.77;;;2.10;;
19828;SDS011;10075;50.924;4.396;2022-11-23T10:51:36;8.03;;;2.23;;
19828;SDS011;10075;50.924;4.396;2022-11-23T10:54:04;8.03;;;1.90;;
19828;SDS011;10075;50.924;4.396;2022-11-23T10:56:45;7.40;;;2.33;;
19828;SDS011;10075;50.924;4.396;2022-11-23T10:59:24;6.33;;;2.57;;
19828;SDS011;10075;50.924;4.396;2022-11-23T11:01:58;8.27;;;3.03;;
19828;SDS011;10075;50.924;4.396;2022-11-23T11:04:26;11.37;;;2.50;;
19828;SDS011;10075;50.924;4.396;2022-11-23T11:07:08;11.10;;;2.63;;
19828;SDS011;10075;50.924;4.396;2022-11-23T11:09:47;7.83;;;2.80;;
19828;SDS011;10075;50.924;4.396;2022-11-23T11:12:17;9.03;;;2.70;;
19828;SDS011;10075;50.924;4.396;2022-11-23T11:14:54;7.77;;;3.07;;
19828;SDS011;10075;50.924;4.396;2022-11-23T11:17:28;7.90;;;1.87;;
19828;SDS011;10075;50.924;4.396;2022-11-23T11:19:58;8.33;;;2.07;;
19828;SDS011;10075;50.924;4.396;2022-11-23T11:22:31;9.37;;;2.10;;
19828;SDS011;10075;50.924;4.396;2022-11-23T11:25:00;8.07;;;2.40;;
19828;SDS011;10075;50.924;4.396;2022-11-23T11:27:30;11.30;;;2.87;;
19828;SDS011;10075;50.924;4.396;2022-11-23T11:30:01;8.23;;;2.47;;
19828;SDS011;10075;50.924;4.396;2022-11-23T11:32:34;7.63;;;1.73;;
19828;SDS011;10075;50.924;4.396;2022-11-23T11:35:10;7.83;;;1.87;;
19828;SDS011;10075;50.924;4.396;2022-11-23T11:37:42;8.03;;;3.03;;
19828;SDS011;10075;50.924;4.396;2022-11-23T11:40:16;6.53;;;2.05;;
19828;SDS011;10075;50.924;4.396;2022-11-23T11:42:47;9.07;;;2.20;;
19828;SDS011;10075;50.924;4.396;2022-11-23T11:45:20;10.23;;;2.53;;
19828;SDS011;10075;50.924;4.396;2022-11-23T11:47:52;7.00;;;2.00;;
19828;SDS011;10075;50.924;4.396;2022-11-23T11:50:25;10.83;;;2.03;;
19828;SDS011;10075;50.924;4.396;2022-11-23T11:52:57;12.90;;;1.90;;
19828;SDS011;10075;50.924;4.396;2022-11-23T11:55:29;8.80;;;1.90;;
19828;SDS011;10075;50.924;4.396;2022-11-23T11:58:09;9.13;;;2.07;;
19828;SDS011;10075;50.924;4.396;2022-11-23T12:00:37;9.27;;;2.13;;
19828;SDS011;10075;50.924;4.396;2022-11-23T12:03:07;7.35;;;2.60;;
19828;SDS011;10075;50.924;4.396;2022-11-23T12:05:45;5.43;;;2.20;;
19828;SDS011;10075;50.924;4.396;2022-11-23T12:08:14;7.00;;;1.70;;
19828;SDS011;10075;50.924;4.396;2022-11-23T12:10:47;7.37;;;2.27;;
19828;SDS011;10075;50.924;4.396;2022-11-23T12:13:20;7.83;;;1.77;;
19828;SDS011;10075;50.924;4.396;2022-11-23T12:15:49;9.97;;;3.97;;
19828;SDS011;10075;50.924;4.396;2022-11-23T12:18:27;7.97;;;2.87;;
19828;SDS011;10075;50.924;4.396;2022-11-23T12:21:07;9.63;;;2.83;;
19828;SDS011;10075;50.924;4.396;2022-11-23T12:23:46;5.83;;;2.37;;
19828;SDS011;10075;50.924;4.396;2022-11-23T12:26:25;7.63;;;2.47;;
19828;SDS011;10075;50.924;4.396;2022-11-23T12:29:03;6.53;;;2.17;;
19828;SDS011;10075;50.924;4.396;2022-11-23T12:31:40;6.77;;;1.50;;
19828;SDS011;10075;50.924;4.396;2022-11-23T12:34:22;5.93;;;1.23;;
19828;SDS011;10075;50.924;4.396;2022-11-23T12:37:05;3.77;;;1.40;;
19828;SDS011;10075;50.924;4.396;2022-11-23T12:39:49;6.17;;;1.20;;
19828;SDS011;10075;50.924;4.396;2022-11-23T12:42:38;7.03;;;1.67;;
19828;SDS011;10075;50.924;4.396;2022-11-23T12:45:14;6.37;;;1.97;;
19828;SDS011;10075;50.924;4.396;2022-11-23T12:47:52;4.73;;;1.67;;
19828;SDS011;10075;50.924;4.396;2022-11-23T12:50:29;8.40;;;1.70;;
19828;SDS011;10075;50.924;4.396;2022-11-23T12:53:07;7.63;;;1.60;;
19828;SDS011;10075;50.924;4.396;2022-11-23T12:55:57;4.90;;;1.23;;
19828;SDS011;10075;50.924;4.396;2022-11-23T12:58:28;4.83;;;2.00;;
19828;SDS011;10075;50.924;4.396;2022-11-23T13:01:00;10.27;;;2.60;;
19828;SDS011;10075;50.924;4.396;2022-11-23T13:03:36;7.10;;;2.50;;
19828;SDS011;10075;50.924;4.396;2022-11-23T13:06:29;6.67;;;2.43;;
19828;SDS011;10075;50.924;4.396;2022-11-23T13:09:41;9.37;;;2.67;;
19828;SDS011;10075;50.924;4.396;2022-11-23T13:12:36;8.70;;;2.17;;
19828;SDS011;10075;50.924;4.396;2022-11-23T13:15:24;3.27;;;1.77;;
19828;SDS011;10075;50.924;4.396;2022-11-23T13:18:06;7.97;;;2.87;;
19828;SDS011;10075;50.924;4.396;2022-11-23T13:20:48;7.97;;;2.67;;
19828;SDS011;10075;50.924;4.396;2022-11-23T13:23:30;5.07;;;1.97;;
19828;SDS011;10075;50.924;4.396;2022-11-23T13:26:14;7.13;;;3.00;;
19828;SDS011;10075;50.924;4.396;2022-11-23T13:28:42;5.47;;;2.27;;
19828;SDS011;10075;50.924;4.396;2022-11-23T13:31:25;8.43;;;2.30;;
19828;SDS011;10075;50.924;4.396;2022-11-23T13:34:06;7.33;;;2.30;;
19828;SDS011;10075;50.924;4.396;2022-11-23T13:37:10;6.63;;;2.63;;
19828;SDS011;10075;50.924;4.396;2022-11-23T13:42:31;6.17;;;2.53;;
19828;SDS011;10075;50.924;4.396;2022-11-23T13:45:13;11.37;;;3.33;;
19828;SDS011;10075;50.924;4.396;2022-11-23T13:50:58;5.20;;;3.10;;
19828;SDS011;10075;50.924;4.396;2022-11-23T13:53:27;8.20;;;3.00;;
19828;SDS011;10075;50.924;4.396;2022-11-23T13:56:00;5.57;;;3.50;;
19828;SDS011;10075;50.924;4.396;2022-11-23T13:58:49;10.27;;;3.20;;
19828;SDS011;10075;50.924;4.396;2022-11-23T14:04:23;7.87;;;2.87;;
19828;SDS011;10075;50.924;4.396;2022-11-23T14:06:53;4.80;;;1.83;;
19828;SDS011;10075;50.924;4.396;2022-11-23T14:09:27;6.30;;;2.30;;
19828;SDS011;10075;50.924;4.396;2022-11-23T14:12:01;4.73;;;2.33;;
19828;SDS011;10075;50.924;4.396;2022-11-23T14:14:38;5.63;;;2.33;;
19828;SDS011;10075;50.924;4.396;2022-11-23T14:17:19;10.10;;;2.47;;
19828;SDS011;10075;50.924;4.396;2022-11-23T14:20:14;7.03;;;2.00;;
19828;SDS011;10075;50.924;4.396;2022-11-23T14:22:53;7.30;;;2.40;;
19828;SDS011;10075;50.924;4.396;2022-11-23T14:25:34;5.43;;;1.93;;
19828;SDS011;10075;50.924;4.396;2022-11-23T14:28:16;6.93;;;3.50;;
19828;SDS011;10075;50.924;4.396;2022-11-23T14:30:58;6.47;;;3.67;;
19828;SDS011;10075;50.924;4.396;2022-11-23T14:33:38;7.73;;;3.33;;
19828;SDS011;10075;50.924;4.396;2022-11-23T14:36:17;5.40;;;2.50;;
19828;SDS011;10075;50.924;4.396;2022-11-23T14:39:06;7.17;;;3.00;;
19828;SDS011;10075;50.924;4.396;2022-11-23T14:41:54;5.63;;;3.20;;
19828;SDS011;10075;50.924;4.396;2022-11-23T14:44:25;4.30;;;2.50;;
19828;SDS011;10075;50.924;4.396;2022-11-23T14:47:03;6.17;;;2.30;;
19828;SDS011;10075;50.924;4.396;2022-11-23T14:49:31;5.43;;;2.80;;
19828;SDS011;10075;50.924;4.396;2022-11-23T14:51:58;5.33;;;3.10;;
19828;SDS011;10075;50.924;4.396;2022-11-23T14:54:28;5.43;;;2.77;;
19828;SDS011;10075;50.924;4.396;2022-11-23T14:56:56;5.00;;;3.03;;
19828;SDS011;10075;50.924;4.396;2022-11-23T14:59:27;6.33;;;3.33;;
19828;SDS011;10075;50.924;4.396;2022-11-23T15:01:59;3.83;;;2.47;;
19828;SDS011;10075;50.924;4.396;2022-11-23T15:04:29;5.30;;;1.93;;
19828;SDS011;10075;50.924;4.396;2022-11-23T15:07:01;5.10;;;2.37;;
19828;SDS011;10075;50.924;4.396;2022-11-23T15:09:36;4.07;;;2.20;;